Time;durP1;ratioP1;P1;durP2;ratioP2;P2;SDS_P1;SDS_P2;PMS_P1;PMS_P2;Temp;Humidity;BMP_temperature;BMP_pressure;BME280_temperature;BME280_humidity;BME280_pressure;Samples;Min_cycle;Max_cycle;Signal;HPM_P1;HPM_P2
2021/04/03 00:00:32;;;;;;;23.70;3.15;;;10.30;73.70;;;;;;5066934;28;20481;-76
2021/04/03 00:03:00;;;;;;;20.95;3.67;;;10.30;73.60;;;;;;5060122;28;20456;-76
2021/04/03 00:05:28;;;;;;;19.50;3.53;;;10.30;73.10;;;;;;5063164;28;20431;-76
2021/04/03 00:07:54;;;;;;;25.52;4.22;;;10.30;73.10;;;;;;5041829;28;20516;-76
2021/04/03 00:10:23;;;;;;;25.70;4.03;;;10.30;73.10;;;;;;5061941;28;20883;-76
2021/04/03 00:12:50;;;;;;;23.73;4.00;;;10.20;72.80;;;;;;5062771;28;20442;-77
2021/04/03 00:15:16;;;;;;;26.15;3.83;;;10.30;72.60;;;;;;5059391;28;20453;-75
2021/04/03 00:17:44;;;;;;;22.27;3.67;;;10.20;72.40;;;;;;5060849;28;20427;-76
2021/04/03 00:20:13;;;;;;;20.42;3.60;;;10.30;72.50;;;;;;5040619;28;20450;-76
2021/04/03 00:22:40;;;;;;;22.05;4.07;;;10.30;72.60;;;;;;5062452;28;20488;-76
2021/04/03 00:25:07;;;;;;;24.10;3.87;;;10.30;72.50;;;;;;5062870;28;20431;-76
2021/04/03 00:27:34;;;;;;;28.17;4.20;;;10.30;72.40;;;;;;5059025;28;20437;-77
2021/04/03 00:30:14;;;;;;;27.60;4.20;;;10.40;72.30;;;;;;5061462;28;20431;-76
2021/04/03 00:32:41;;;;;;;25.42;4.25;;;10.30;72.20;;;;;;5046469;28;20434;-76
2021/04/03 00:35:10;;;;;;;27.90;4.10;;;10.40;72.50;;;;;;5060457;28;20427;-75
2021/04/03 00:37:37;;;;;;;32.25;4.43;;;10.30;72.50;;;;;;5042655;28;20750;-76
2021/04/03 00:40:08;;;;;;;26.73;4.03;;;10.30;72.50;;;;;;5058390;28;20912;-76
2021/04/03 00:42:34;;;;;;;29.08;4.15;;;10.30;72.70;;;;;;5061980;28;20419;-76
2021/04/03 00:45:01;;;;;;;29.55;4.20;;;10.30;72.80;;;;;;5044718;28;20458;-76
2021/04/03 00:47:27;;;;;;;26.13;3.90;;;10.30;72.30;;;;;;5044953;28;20440;-76
2021/04/03 00:49:54;;;;;;;31.73;4.28;;;10.20;71.60;;;;;;5054847;28;20452;-76
2021/04/03 00:52:22;;;;;;;29.55;4.00;;;10.20;72.10;;;;;;5044725;28;20778;-75
2021/04/03 00:54:49;;;;;;;28.45;3.97;;;10.20;71.30;;;;;;5063035;28;20895;-76
2021/04/03 00:57:15;;;;;;;25.63;4.07;;;10.30;70.70;;;;;;5046753;28;20447;-76
2021/04/03 00:59:42;;;;;;;21.83;4.05;;;10.20;70.30;;;;;;5040333;28;20426;-76
2021/04/03 01:02:12;;;;;;;25.90;3.90;;;10.30;70.30;;;;;;5056765;28;20936;-76
2021/04/03 01:04:39;;;;;;;25.02;3.95;;;10.30;70.10;;;;;;5043453;28;20429;-76
2021/04/03 01:07:08;;;;;;;24.70;4.07;;;10.20;69.90;;;;;;5047528;28;20427;-76
2021/04/03 01:09:39;;;;;;;28.08;4.38;;;10.30;70.00;;;;;;5042855;28;20455;-76
2021/04/03 01:12:19;;;;;;;19.92;4.00;;;10.20;70.00;;;;;;5045159;28;20427;-77
2021/04/03 01:14:57;;;;;;;25.50;4.90;;;10.20;70.20;;;;;;5062099;28;20970;-76
2021/04/03 01:17:30;;;;;;;31.13;5.50;;;10.20;70.00;;;;;;5045044;28;20427;-77
2021/04/03 01:20:12;;;;;;;29.57;4.70;;;10.20;70.20;;;;;;5043227;28;20457;-77
2021/04/03 01:22:58;;;;;;;30.63;4.45;;;10.10;70.20;;;;;;5042849;28;21091;-76
2021/04/03 01:25:40;;;;;;;21.33;3.90;;;10.10;70.00;;;;;;5057943;28;20444;-75
2021/04/03 01:28:31;;;;;;;24.40;3.70;;;10.10;70.30;;;;;;5041880;28;20769;-76
2021/04/03 01:31:00;;;;;;;23.63;3.83;;;10.10;70.20;;;;;;5041756;28;20994;-78
2021/04/03 01:33:30;;;;;;;23.40;3.90;;;10.10;70.40;;;;;;5062062;28;20423;-76
2021/04/03 01:36:02;;;;;;;25.15;4.30;;;10.10;70.40;;;;;;5048201;28;20431;-76
2021/04/03 01:38:33;;;;;;;29.23;4.28;;;10.10;70.20;;;;;;5056576;28;20415;-76
2021/04/03 01:41:01;;;;;;;24.65;4.22;;;10.10;70.20;;;;;;5054777;28;20477;-77
2021/04/03 01:43:39;;;;;;;26.98;4.20;;;10.10;70.20;;;;;;5044136;28;20453;-76
2021/04/03 01:46:08;;;;;;;21.30;3.67;;;10.10;70.20;;;;;;5046494;28;20964;-76
2021/04/03 01:48:38;;;;;;;23.73;3.60;;;10.10;70.30;;;;;;5041013;28;20427;-76
2021/04/03 01:51:06;;;;;;;23.90;3.70;;;10.10;70.30;;;;;;5044177;28;20909;-77
2021/04/03 01:53:35;;;;;;;20.58;4.00;;;10.10;70.50;;;;;;5045895;28;20427;-76
2021/04/03 01:56:06;;;;;;;25.30;3.97;;;10.10;70.70;;;;;;5058640;28;20504;-76
2021/04/03 01:58:40;;;;;;;21.73;4.50;;;10.10;70.50;;;;;;5062109;28;20427;-77
2021/04/03 02:01:11;;;;;;;24.15;4.00;;;10.10;70.60;;;;;;5042960;28;20425;-76
2021/04/03 02:03:39;;;;;;;21.00;4.05;;;10.10;70.60;;;;;;5043903;28;20544;-76
2021/04/03 02:06:09;;;;;;;26.17;3.85;;;10.10;70.70;;;;;;5045014;28;20481;-75
2021/04/03 02:08:50;;;;;;;26.88;4.30;;;10.10;70.70;;;;;;5055760;28;20427;-77
2021/04/03 02:11:34;;;;;;;27.45;4.30;;;10.10;70.70;;;;;;5045072;28;20443;-76
2021/04/03 02:14:07;;;;;;;23.20;4.00;;;10.10;70.90;;;;;;5051534;28;20458;-77
2021/04/03 02:16:36;;;;;;;24.00;4.15;;;10.10;70.90;;;;;;5063893;28;20419;-76
2021/04/03 02:19:06;;;;;;;22.20;3.80;;;10.10;70.60;;;;;;5058928;28;20424;-76
2021/04/03 02:21:34;;;;;;;22.52;3.88;;;10.10;70.30;;;;;;5068544;28;20423;-77
2021/04/03 02:24:01;;;;;;;22.02;3.92;;;10.10;70.30;;;;;;5060988;28;21035;-76
2021/04/03 02:26:30;;;;;;;27.02;4.35;;;10.10;71.30;;;;;;5046450;28;20424;-76
2021/04/03 02:28:57;;;;;;;30.27;4.68;;;10.10;70.30;;;;;;5067501;28;20899;-76
2021/04/03 02:31:23;;;;;;;25.23;4.40;;;10.10;70.90;;;;;;5045187;28;20502;-77
2021/04/03 02:33:52;;;;;;;26.33;4.38;;;10.10;71.00;;;;;;5042838;28;20425;-76
2021/04/03 02:36:19;;;;;;;28.90;4.32;;;10.10;71.70;;;;;;5062549;28;20807;-76
2021/04/03 02:38:47;;;;;;;26.15;4.18;;;10.10;72.10;;;;;;5043078;28;20558;-76
2021/04/03 02:41:14;;;;;;;20.65;3.95;;;10.10;72.10;;;;;;5047901;28;20421;-76
2021/04/03 02:43:52;;;;;;;25.27;3.85;;;10.10;72.30;;;;;;5047607;28;20507;-76
2021/04/03 02:46:26;;;;;;;28.45;4.10;;;10.10;71.40;;;;;;5051275;28;20438;-78
2021/04/03 02:48:58;;;;;;;25.83;4.90;;;10.00;71.40;;;;;;5048040;28;20425;-77
2021/04/03 02:51:36;;;;;;;30.90;4.88;;;10.00;71.90;;;;;;5057988;28;20483;-77
2021/04/03 02:54:07;;;;;;;25.90;4.45;;;10.00;72.60;;;;;;5045217;28;20496;-78
2021/04/03 02:56:37;;;;;;;28.08;4.68;;;10.00;73.30;;;;;;5047570;28;20466;-77
2021/04/03 02:59:05;;;;;;;30.45;4.65;;;10.00;73.60;;;;;;5059419;28;20421;-77
2021/04/03 03:01:33;;;;;;;28.40;4.57;;;10.00;73.90;;;;;;5060431;28;20422;-76
2021/04/03 03:04:01;;;;;;;29.38;4.47;;;10.00;74.30;;;;;;5045591;28;20419;-76
2021/04/03 03:06:32;;;;;;;26.92;4.55;;;10.00;74.80;;;;;;5047660;28;20423;-76
2021/04/03 03:09:01;;;;;;;29.00;4.50;;;10.00;75.10;;;;;;5057605;28;20471;-77
2021/04/03 03:11:28;;;;;;;30.60;4.93;;;10.00;75.50;;;;;;5062583;28;20543;-76
2021/04/03 03:14:00;;;;;;;29.08;4.80;;;10.00;75.70;;;;;;5049247;28;20449;-76
2021/04/03 03:16:28;;;;;;;33.50;5.13;;;10.00;75.90;;;;;;5044064;28;20428;-77
2021/04/03 03:18:57;;;;;;;32.50;4.85;;;10.10;75.90;;;;;;5048290;28;20438;-76
2021/04/03 03:21:27;;;;;;;30.23;5.00;;;10.00;75.70;;;;;;5058246;28;20905;-76
2021/04/03 03:23:54;;;;;;;27.80;4.82;;;10.00;75.80;;;;;;5048530;28;20434;-77
2021/04/03 03:26:22;;;;;;;37.03;5.10;;;10.00;76.00;;;;;;5046831;28;20413;-77
2021/04/03 03:28:49;;;;;;;30.17;5.03;;;10.00;76.00;;;;;;5059941;28;20824;-76
2021/04/03 03:31:16;;;;;;;32.00;4.75;;;10.00;76.10;;;;;;5047882;28;20411;-77
2021/04/03 03:33:43;;;;;;;28.70;4.90;;;10.00;76.30;;;;;;5062441;28;20427;-76
2021/04/03 03:36:09;;;;;;;32.15;5.00;;;10.00;76.30;;;;;;5048115;28;20415;-76
2021/04/03 03:38:42;;;;;;;30.43;5.13;;;10.00;76.30;;;;;;5042528;28;20415;-76
2021/04/03 03:41:13;;;;;;;30.23;4.68;;;10.00;76.40;;;;;;5043858;28;20942;-76
2021/04/03 03:43:40;;;;;;;34.33;5.05;;;10.00;76.50;;;;;;5060076;28;20444;-76
2021/04/03 03:46:08;;;;;;;33.28;4.57;;;10.00;76.70;;;;;;5061200;28;20423;-76
2021/04/03 03:48:36;;;;;;;29.83;4.53;;;10.00;76.90;;;;;;5063468;28;20429;-77
2021/04/03 03:51:02;;;;;;;26.85;4.50;;;10.00;77.10;;;;;;5058470;28;20429;-77
2021/04/03 03:53:37;;;;;;;33.13;4.95;;;10.00;77.10;;;;;;5061409;28;20424;-75
2021/04/03 03:56:08;;;;;;;32.80;5.55;;;10.00;77.20;;;;;;5040249;28;20462;-76
2021/04/03 03:58:35;;;;;;;34.55;5.07;;;10.00;77.30;;;;;;5057338;28;21015;-77
2021/04/03 04:01:02;;;;;;;32.83;5.30;;;9.90;77.30;;;;;;5060727;28;20455;-76
2021/04/03 04:03:29;;;;;;;33.55;5.22;;;9.90;77.30;;;;;;5059879;28;20427;-75
2021/04/03 04:05:59;;;;;;;40.00;5.50;;;9.90;77.70;;;;;;5045434;28;20428;-76
2021/04/03 04:08:28;;;;;;;34.08;5.30;;;9.90;77.90;;;;;;5063606;28;20870;-76
2021/04/03 04:11:02;;;;;;;32.13;5.40;;;9.90;78.00;;;;;;5065040;28;20584;-77
2021/04/03 04:13:30;;;;;;;34.58;5.07;;;9.90;78.20;;;;;;5044271;28;20427;-75
2021/04/03 04:15:56;;;;;;;32.78;5.20;;;9.90;78.50;;;;;;5062508;28;20787;-76
2021/04/03 04:18:23;;;;;;;30.77;5.17;;;9.80;78.70;;;;;;5059973;28;20994;-76
2021/04/03 04:20:51;;;;;;;33.95;5.18;;;9.80;78.90;;;;;;5039868;28;20431;-76
2021/04/03 04:23:26;;;;;;;33.65;5.22;;;9.70;79.00;;;;;;5045748;28;20480;-76
2021/04/03 04:25:57;;;;;;;30.88;5.20;;;9.70;79.30;;;;;;5065044;28;20515;-74
2021/04/03 04:28:27;;;;;;;34.92;5.25;;;9.70;79.40;;;;;;5038907;28;20434;-77
2021/04/03 04:30:55;;;;;;;39.45;5.32;;;9.70;79.70;;;;;;5042919;28;20527;-76
2021/04/03 04:33:22;;;;;;;39.58;5.63;;;9.70;79.80;;;;;;5039040;28;20428;-76
2021/04/03 04:35:51;;;;;;;37.33;5.37;;;9.70;80.00;;;;;;5056867;28;21000;-76
2021/04/03 04:38:23;;;;;;;35.37;5.63;;;9.60;80.10;;;;;;5040985;28;20952;-76
2021/04/03 04:40:50;;;;;;;37.28;5.43;;;9.60;80.30;;;;;;5046130;28;20427;-77
2021/04/03 04:43:20;;;;;;;39.25;5.78;;;9.60;80.50;;;;;;5059019;28;20470;-75
2021/04/03 04:45:48;;;;;;;37.15;5.90;;;9.60;80.80;;;;;;5061923;28;20750;-76
2021/04/03 04:48:18;;;;;;;40.13;6.00;;;9.50;80.90;;;;;;5039699;28;20508;-76
2021/04/03 04:50:50;;;;;;;34.47;5.57;;;9.50;81.00;;;;;;5046412;28;20432;-75
2021/04/03 04:53:19;;;;;;;39.00;5.90;;;9.50;81.30;;;;;;5042207;28;20922;-76
2021/04/03 04:55:47;;;;;;;33.97;5.68;;;9.50;81.40;;;;;;5048214;28;20445;-75
2021/04/03 04:58:13;;;;;;;39.15;5.78;;;9.50;81.60;;;;;;5065673;28;20989;-76
2021/04/03 05:00:40;;;;;;;40.53;5.90;;;9.50;81.80;;;;;;5044464;28;20423;-76
2021/04/03 05:03:16;;;;;;;38.88;5.38;;;9.40;81.90;;;;;;5057888;28;20432;-75
2021/04/03 05:05:43;;;;;;;36.78;5.65;;;9.40;82.10;;;;;;5059234;28;20450;-78
2021/04/03 05:08:10;;;;;;;39.00;5.75;;;9.40;83.10;;;;;;5047351;28;20426;-77
2021/04/03 05:10:36;;;;;;;38.85;5.68;;;9.40;82.40;;;;;;5057880;28;20427;-77
2021/04/03 05:13:04;;;;;;;36.47;5.30;;;9.40;82.70;;;;;;5038046;28;20469;-77
2021/04/03 05:15:30;;;;;;;37.33;5.93;;;9.40;83.50;;;;;;5058901;28;20788;-76
2021/04/03 05:17:57;;;;;;;36.42;5.93;;;9.40;82.90;;;;;;5055304;28;20437;-75
2021/04/03 05:20:23;;;;;;;38.78;5.65;;;9.30;83.10;;;;;;5041249;28;20416;-75
2021/04/03 05:22:51;;;;;;;41.25;5.63;;;9.30;83.20;;;;;;5042395;28;20518;-78
2021/04/03 05:25:17;;;;;;;35.97;5.70;;;9.30;83.20;;;;;;5057550;28;20518;-76
2021/04/03 05:27:44;;;;;;;43.17;8.35;;;9.30;83.30;;;;;;5044561;28;20413;-77
2021/04/03 05:30:12;;;;;;;33.85;5.15;;;9.30;83.40;;;;;;5061179;28;20441;-77
2021/04/03 05:32:38;;;;;;;33.30;5.03;;;9.30;83.50;;;;;;5063024;28;20427;-76
2021/04/03 05:35:06;;;;;;;38.85;5.70;;;9.30;83.50;;;;;;5056851;28;21127;-75
2021/04/03 05:37:32;;;;;;;36.87;5.40;;;9.30;83.50;;;;;;5058067;28;20423;-75
2021/04/03 05:39:59;;;;;;;29.55;5.43;;;9.30;83.40;;;;;;5053960;28;20995;-75
2021/04/03 05:42:32;;;;;;;36.58;5.57;;;9.30;83.40;;;;;;5060523;28;20427;-78
2021/04/03 05:45:00;;;;;;;30.85;5.07;;;9.30;83.50;;;;;;5066544;28;21560;-77
2021/04/03 05:47:27;;;;;;;39.30;6.25;;;9.30;83.60;;;;;;5062860;28;20443;-76
2021/04/03 05:49:53;;;;;;;40.87;5.70;;;9.30;83.70;;;;;;5045908;28;20433;-75
2021/04/03 05:52:21;;;;;;;31.52;5.20;;;9.30;83.70;;;;;;5066592;28;20455;-75
2021/04/03 05:54:47;;;;;;;32.30;5.10;;;9.30;83.90;;;;;;5061508;28;20415;-75
2021/04/03 05:57:14;;;;;;;41.83;5.90;;;9.30;83.90;;;;;;5063942;28;20423;-77
2021/04/03 05:59:41;;;;;;;44.43;6.33;;;9.30;84.00;;;;;;5060912;28;20914;-76
2021/04/03 06:02:08;;;;;;;40.95;6.07;;;9.20;83.90;;;;;;5064509;28;20931;-77
2021/04/03 06:04:34;;;;;;;43.42;5.82;;;9.20;84.00;;;;;;5043827;28;20428;-76
2021/04/03 06:07:01;;;;;;;38.28;6.47;;;9.20;84.30;;;;;;5065071;28;20429;-77
2021/04/03 06:09:28;;;;;;;36.10;5.70;;;9.20;84.30;;;;;;5059701;28;20431;-76
2021/04/03 06:11:55;;;;;;;43.07;5.77;;;9.20;84.40;;;;;;5063195;28;20502;-76
2021/04/03 06:14:22;;;;;;;37.78;5.88;;;9.30;84.50;;;;;;5058411;28;20441;-76
2021/04/03 06:16:51;;;;;;;38.40;6.43;;;9.30;84.50;;;;;;5065458;28;20463;-74
2021/04/03 06:19:19;;;;;;;36.40;5.78;;;9.30;84.50;;;;;;5061965;28;20921;-75
2021/04/03 06:21:47;;;;;;;35.80;5.50;;;9.30;84.50;;;;;;5066536;28;20427;-76
2021/04/03 06:24:19;;;;;;;33.07;5.87;;;9.30;84.80;;;;;;5045736;28;20488;-77
2021/04/03 06:26:57;;;;;;;37.22;5.50;;;9.30;85.00;;;;;;5066154;28;20799;-78
2021/04/03 06:29:30;;;;;;;38.35;6.18;;;9.30;85.10;;;;;;5067781;28;20434;-78
2021/04/03 06:31:58;;;;;;;34.60;5.82;;;9.30;85.00;;;;;;5060501;28;20829;-75
2021/04/03 06:34:29;;;;;;;38.90;6.40;;;9.30;85.00;;;;;;5062854;28;20943;-75
2021/04/03 06:36:56;;;;;;;39.60;5.85;;;9.30;84.90;;;;;;5058393;28;20427;-75
2021/04/03 06:39:23;;;;;;;36.97;5.60;;;9.30;84.80;;;;;;5066126;28;20419;-78
2021/04/03 06:41:49;;;;;;;37.08;6.40;;;9.30;84.80;;;;;;5047655;28;20513;-76
2021/04/03 06:44:16;;;;;;;33.80;5.75;;;9.30;84.50;;;;;;5047900;28;20784;-75
2021/04/03 06:46:50;;;;;;;36.67;5.47;;;9.30;84.40;;;;;;5059006;28;20475;-76
2021/04/03 06:49:18;;;;;;;36.55;5.95;;;9.30;84.20;;;;;;5048238;28;20954;-78
2021/04/03 06:51:45;;;;;;;35.95;6.25;;;9.30;84.30;;;;;;5062839;28;20451;-78
2021/04/03 06:54:13;;;;;;;33.30;5.63;;;9.30;84.40;;;;;;5064712;28;20510;-79
2021/04/03 06:56:40;;;;;;;35.13;6.35;;;9.40;84.50;;;;;;5064257;28;20427;-75
2021/04/03 06:59:08;;;;;;;38.03;6.38;;;9.40;84.60;;;;;;5060127;28;20423;-78
2021/04/03 07:01:50;;;;;;;39.55;6.30;;;9.40;84.60;;;;;;5046703;28;20431;-75
2021/04/03 07:04:27;;;;;;;38.15;6.20;;;9.40;84.60;;;;;;5060842;28;20514;-76
2021/04/03 07:06:55;;;;;;;39.63;6.13;;;9.40;84.60;;;;;;5064123;28;20425;-77
2021/04/03 07:09:22;;;;;;;40.72;6.07;;;9.50;84.90;;;;;;5057026;28;20433;-75
2021/04/03 07:11:50;;;;;;;39.30;6.03;;;9.50;84.80;;;;;;5062133;28;20434;-76
2021/04/03 07:14:18;;;;;;;40.80;6.13;;;9.50;84.80;;;;;;5058868;28;21281;-77
2021/04/03 07:16:46;;;;;;;40.20;6.15;;;9.50;84.60;;;;;;5061019;28;20480;-77
2021/04/03 07:19:14;;;;;;;40.13;6.60;;;9.60;84.60;;;;;;5065393;28;20423;-76
2021/04/03 07:21:42;;;;;;;34.13;6.80;;;9.60;84.30;;;;;;5060997;28;20431;-76
2021/04/03 07:24:11;;;;;;;36.28;6.13;;;9.60;83.50;;;;;;5041755;28;20429;-75
2021/04/03 07:26:39;;;;;;;31.60;5.73;;;9.70;82.90;;;;;;5057953;28;20437;-78
2021/04/03 07:29:05;;;;;;;28.08;4.88;;;9.70;82.40;;;;;;5058859;28;20434;-77
2021/04/03 07:31:40;;;;;;;32.83;5.03;;;9.70;81.80;;;;;;5061524;28;20419;-75
2021/04/03 07:34:08;;;;;;;34.30;5.53;;;9.80;81.50;;;;;;5041027;28;20415;-77
2021/04/03 07:36:37;;;;;;;31.03;5.77;;;9.80;80.60;;;;;;5057330;28;20430;-74
2021/04/03 07:39:06;;;;;;;32.47;5.05;;;9.80;80.20;;;;;;5057996;28;20431;-77
2021/04/03 07:41:38;;;;;;;29.85;5.38;;;9.80;79.80;;;;;;5039287;28;20423;-76
2021/04/03 07:44:12;;;;;;;29.92;5.43;;;9.90;79.40;;;;;;5058903;28;20464;-75
2021/04/03 07:46:41;;;;;;;29.13;5.32;;;9.90;78.90;;;;;;5059302;28;20427;-74
2021/04/03 07:49:09;;;;;;;24.85;4.63;;;9.90;78.80;;;;;;5061150;28;20471;-74
2021/04/03 07:51:45;;;;;;;28.80;4.97;;;9.90;78.50;;;;;;5045944;28;20428;-74
2021/04/03 07:54:29;;;;;;;31.10;4.95;;;9.90;78.00;;;;;;5045262;28;20511;-76
2021/04/03 07:57:04;;;;;;;25.98;4.90;;;9.90;77.60;;;;;;5056959;28;20444;-76
2021/04/03 07:59:51;;;;;;;33.17;5.65;;;9.90;77.30;;;;;;5058684;28;20462;-75
2021/04/03 08:02:23;;;;;;;27.95;5.00;;;10.00;77.90;;;;;;5054689;28;20810;-75
2021/04/03 08:04:50;;;;;;;30.05;5.25;;;10.10;77.50;;;;;;5062405;28;20431;-75
2021/04/03 08:07:20;;;;;;;29.13;5.47;;;10.00;77.30;;;;;;5057661;28;20734;-75
2021/04/03 08:09:47;;;;;;;30.40;5.50;;;10.10;77.50;;;;;;5057645;28;20448;-75
2021/04/03 08:12:13;;;;;;;38.33;5.83;;;10.10;77.30;;;;;;5058176;28;20426;-75
2021/04/03 08:14:43;;;;;;;24.25;5.03;;;10.20;77.40;;;;;;5054719;28;20440;-74
2021/04/03 08:17:18;;;;;;;32.72;5.45;;;10.20;77.40;;;;;;5058856;28;20776;-77
2021/04/03 08:19:44;;;;;;;30.77;5.45;;;10.30;76.90;;;;;;5059026;28;21397;-78
2021/04/03 08:22:11;;;;;;;28.10;4.63;;;10.30;76.40;;;;;;5060880;28;20437;-76
2021/04/03 08:24:38;;;;;;;26.58;5.15;;;10.40;76.00;;;;;;5056364;28;20879;-76
2021/04/03 08:27:06;;;;;;;30.08;5.50;;;10.50;76.00;;;;;;5058797;28;20503;-76
2021/04/03 08:29:34;;;;;;;29.40;5.40;;;10.50;75.70;;;;;;5056996;28;20437;-79
2021/04/03 08:32:01;;;;;;;34.00;6.07;;;10.60;75.70;;;;;;5061247;28;20823;-76
2021/04/03 08:34:28;;;;;;;29.13;5.15;;;10.60;75.40;;;;;;5058561;28;20425;-78
2021/04/03 08:36:55;;;;;;;27.38;5.32;;;10.70;76.40;;;;;;5039637;28;20441;-77
2021/04/03 08:39:23;;;;;;;37.83;7.40;;;10.70;75.90;;;;;;5060541;28;21893;-78
2021/04/03 08:41:53;;;;;;;26.13;5.35;;;10.80;75.80;;;;;;5060918;28;20419;-77
2021/04/03 08:44:21;;;;;;;27.05;4.80;;;10.90;75.70;;;;;;5043822;28;20520;-76
2021/04/03 08:46:49;;;;;;;26.88;4.90;;;11.00;75.30;;;;;;5060704;28;20434;-76
2021/04/03 08:49:23;;;;;;;30.10;5.00;;;11.10;74.90;;;;;;5061296;28;20441;-76
2021/04/03 08:51:50;;;;;;;27.00;5.35;;;11.20;74.60;;;;;;5043778;28;20428;-78
2021/04/03 08:54:16;;;;;;;24.60;4.93;;;11.40;74.20;;;;;;5062405;28;20423;-77
2021/04/03 08:56:43;;;;;;;28.58;4.93;;;11.50;73.40;;;;;;5061937;28;20419;-77
2021/04/03 08:59:13;;;;;;;23.33;4.80;;;11.60;72.40;;;;;;5053082;28;20479;-78
2021/04/03 09:01:44;;;;;;;29.90;5.85;;;11.70;72.20;;;;;;5063255;28;20451;-76
2021/04/03 09:04:11;;;;;;;30.02;5.40;;;11.80;70.90;;;;;;5063946;28;20561;-77
2021/04/03 09:06:46;;;;;;;28.00;5.15;;;11.80;70.00;;;;;;5063489;28;20435;-77
2021/04/03 09:09:18;;;;;;;21.35;4.55;;;11.80;69.50;;;;;;5055604;28;20421;-77
2021/04/03 09:11:55;;;;;;;27.40;4.47;;;11.80;69.70;;;;;;5059739;28;20435;-77
2021/04/03 09:14:27;;;;;;;24.47;4.30;;;11.80;69.40;;;;;;5058086;28;20431;-78
2021/04/03 09:16:54;;;;;;;27.98;4.47;;;11.70;69.10;;;;;;5054632;28;20427;-77
2021/04/03 09:19:25;;;;;;;23.70;4.57;;;11.80;69.00;;;;;;5055730;28;20494;-77
2021/04/03 09:21:51;;;;;;;22.77;4.50;;;11.80;69.10;;;;;;5055689;28;20432;-76
2021/04/03 09:24:32;;;;;;;26.63;4.82;;;11.80;69.70;;;;;;5059740;28;20421;-76
2021/04/03 09:27:08;;;;;;;24.50;4.50;;;11.80;69.80;;;;;;5063813;28;20981;-77
2021/04/03 09:29:36;;;;;;;29.60;5.30;;;11.80;70.00;;;;;;5061411;28;21161;-77
2021/04/03 09:32:05;;;;;;;29.83;5.28;;;11.90;71.20;;;;;;5060639;28;20438;-77
2021/04/03 09:34:32;;;;;;;28.30;5.10;;;11.80;70.50;;;;;;5059237;28;20445;-78
2021/04/03 09:37:11;;;;;;;25.92;4.80;;;11.80;70.30;;;;;;5057910;28;20423;-75
2021/04/03 09:39:46;;;;;;;25.85;5.20;;;11.90;70.00;;;;;;5043361;28;20445;-77
2021/04/03 09:42:14;;;;;;;24.00;4.83;;;11.90;70.20;;;;;;5062916;28;20765;-73
2021/04/03 09:44:42;;;;;;;24.87;5.00;;;12.00;70.60;;;;;;5056828;28;20440;-75
2021/04/03 09:47:09;;;;;;;26.85;4.90;;;12.10;69.60;;;;;;5062691;28;20435;-75
2021/04/03 09:49:35;;;;;;;22.17;4.78;;;12.20;69.20;;;;;;5035803;28;20474;-75
2021/04/03 09:52:02;;;;;;;25.50;4.85;;;12.30;68.80;;;;;;5057830;28;20423;-75
2021/04/03 09:54:29;;;;;;;23.33;4.45;;;12.40;69.20;;;;;;5057507;28;20431;-76
2021/04/03 09:56:55;;;;;;;21.88;4.63;;;12.50;68.40;;;;;;5052965;28;21095;-75
2021/04/03 09:59:23;;;;;;;23.88;4.40;;;12.60;67.80;;;;;;5046162;28;20427;-75
2021/04/03 10:01:50;;;;;;;21.23;4.25;;;12.80;67.30;;;;;;5058760;28;20784;-76
2021/04/03 10:04:17;;;;;;;20.80;4.55;;;12.90;65.20;;;;;;5056688;28;20417;-77
2021/04/03 10:06:43;;;;;;;21.50;4.03;;;13.00;63.70;;;;;;5040207;28;20427;-76
2021/04/03 10:09:10;;;;;;;22.93;4.17;;;13.10;62.60;;;;;;5056675;28;20427;-75
2021/04/03 10:11:36;;;;;;;21.77;4.30;;;13.20;62.10;;;;;;5057406;28;20433;-75
2021/04/03 10:14:03;;;;;;;20.35;4.13;;;13.30;60.90;;;;;;5041626;28;20423;-75
2021/04/03 10:16:29;;;;;;;19.38;4.35;;;13.40;61.60;;;;;;5036710;28;21391;-75
2021/04/03 10:18:57;;;;;;;21.48;4.82;;;13.60;61.20;;;;;;5057142;28;20434;-75
2021/04/03 10:21:24;;;;;;;28.98;4.78;;;13.70;61.90;;;;;;5059179;28;20455;-75
2021/04/03 10:23:50;;;;;;;27.23;4.95;;;13.80;60.80;;;;;;5054219;28;20427;-75
2021/04/03 10:26:17;;;;;;;28.88;5.85;;;13.80;60.00;;;;;;5054820;28;20420;-75
2021/04/03 10:28:43;;;;;;;28.45;6.07;;;13.80;59.50;;;;;;5061117;28;20431;-76
2021/04/03 10:31:10;;;;;;;24.13;4.80;;;13.80;59.50;;;;;;5063227;28;20425;-76
2021/04/03 10:33:36;;;;;;;21.50;4.50;;;13.80;59.70;;;;;;5043087;28;20462;-75
2021/04/03 10:36:04;;;;;;;24.77;4.85;;;13.80;59.90;;;;;;5065033;28;20440;-74
2021/04/03 10:38:31;;;;;;;26.13;6.20;;;13.90;59.70;;;;;;5059533;28;20443;-75
2021/04/03 10:40:57;;;;;;;24.70;4.63;;;13.90;59.50;;;;;;5044085;28;20423;-75
2021/04/03 10:43:24;;;;;;;21.50;4.60;;;14.00;58.90;;;;;;5060739;28;20419;-74
2021/04/03 10:45:50;;;;;;;21.58;4.60;;;14.10;59.30;;;;;;5060372;28;20998;-74
2021/04/03 10:48:17;;;;;;;22.23;4.63;;;14.10;58.90;;;;;;5039219;28;20924;-73
2021/04/03 10:50:43;;;;;;;21.77;4.25;;;14.20;58.80;;;;;;5068184;28;20443;-75
2021/04/03 10:53:11;;;;;;;18.48;4.30;;;14.20;58.70;;;;;;5057855;28;20801;-75
2021/04/03 10:55:39;;;;;;;23.13;4.60;;;14.40;58.40;;;;;;5061344;28;20537;-75
2021/04/03 10:58:05;;;;;;;23.27;5.10;;;14.40;58.20;;;;;;5061564;28;20755;-76
2021/04/03 11:00:32;;;;;;;22.92;4.70;;;14.40;58.00;;;;;;5055764;28;20503;-75
2021/04/03 11:02:58;;;;;;;22.75;4.97;;;14.40;58.30;;;;;;5063100;28;20899;-75
2021/04/03 11:05:25;;;;;;;22.67;4.80;;;14.40;58.40;;;;;;5058722;28;20479;-75
2021/04/03 11:07:51;;;;;;;23.92;4.53;;;14.40;58.50;;;;;;5054404;28;20427;-75
2021/04/03 11:10:19;;;;;;;23.85;4.40;;;14.30;58.30;;;;;;5057356;28;20920;-76
2021/04/03 11:12:45;;;;;;;26.00;5.10;;;14.30;58.10;;;;;;5055521;28;20986;-76
2021/04/03 11:15:13;;;;;;;23.98;4.82;;;14.30;58.40;;;;;;5065475;28;20430;-76
2021/04/03 11:17:39;;;;;;;27.00;4.80;;;14.20;58.30;;;;;;5057167;28;20799;-74
2021/04/03 11:20:08;;;;;;;24.60;4.53;;;14.20;58.60;;;;;;5055986;28;20433;-75
2021/04/03 11:22:34;;;;;;;20.80;4.55;;;14.30;58.50;;;;;;5058881;28;20436;-76
2021/04/03 11:25:01;;;;;;;21.50;4.50;;;14.30;58.20;;;;;;5056979;28;20445;-76
2021/04/03 11:27:28;;;;;;;23.55;4.65;;;14.30;57.50;;;;;;5061094;28;20480;-75
2021/04/03 11:29:54;;;;;;;24.67;4.40;;;14.30;56.80;;;;;;5049223;28;20482;-76
2021/04/03 11:32:21;;;;;;;23.73;4.50;;;14.30;56.50;;;;;;5059757;28;20921;-76
2021/04/03 11:34:47;;;;;;;25.02;4.72;;;14.30;56.20;;;;;;5038677;28;20491;-75
2021/04/03 11:37:14;;;;;;;25.63;4.73;;;14.40;55.90;;;;;;5059693;28;20538;-77
2021/04/03 11:39:40;;;;;;;21.55;4.60;;;14.40;56.50;;;;;;5061162;28;20490;-75
2021/04/03 11:42:08;;;;;;;22.60;4.20;;;14.40;57.00;;;;;;5044091;28;20489;-77
2021/04/03 11:44:35;;;;;;;25.80;4.47;;;14.50;56.70;;;;;;5059788;28;20448;-75
2021/04/03 11:47:01;;;;;;;26.70;4.80;;;14.50;56.40;;;;;;5046851;28;20432;-74
2021/04/03 11:49:28;;;;;;;27.13;4.63;;;14.50;56.00;;;;;;5041709;28;20419;-79
2021/04/03 11:51:54;;;;;;;25.25;4.82;;;14.50;56.00;;;;;;5060404;28;20938;-78
2021/04/03 11:54:21;;;;;;;27.35;4.80;;;14.50;55.90;;;;;;5044755;28;20477;-75
2021/04/03 11:56:47;;;;;;;24.17;4.25;;;14.50;56.00;;;;;;5056466;28;20444;-75
2021/04/03 11:59:13;;;;;;;22.65;4.43;;;14.50;55.80;;;;;;5043041;28;20425;-76
2021/04/03 12:01:40;;;;;;;30.70;6.40;;;14.50;55.40;;;;;;5059348;28;20972;-75
2021/04/03 12:04:07;;;;;;;25.13;4.47;;;14.50;55.20;;;;;;5057840;28;20919;-74
2021/04/03 12:06:33;;;;;;;22.95;3.90;;;14.50;56.10;;;;;;5042851;28;20414;-74
2021/04/03 12:09:00;;;;;;;21.65;4.35;;;14.60;55.00;;;;;;5055564;28;20412;-75
2021/04/03 12:11:26;;;;;;;17.88;4.00;;;14.60;54.90;;;;;;5059899;28;20436;-78
2021/04/03 12:13:53;;;;;;;21.02;4.70;;;14.70;54.90;;;;;;5061752;28;20715;-76
2021/04/03 12:16:19;;;;;;;25.00;4.53;;;14.80;54.90;;;;;;5036907;28;20419;-75
2021/04/03 12:18:50;;;;;;;22.63;4.60;;;14.80;55.10;;;;;;5039728;28;20427;-76
2021/04/03 12:21:16;;;;;;;27.95;4.55;;;14.90;55.00;;;;;;5059529;28;20460;-76
2021/04/03 12:23:43;;;;;;;21.00;4.15;;;14.90;55.30;;;;;;5043754;28;20421;-74
2021/04/03 12:26:09;;;;;;;23.25;4.90;;;14.90;55.70;;;;;;5061493;28;20437;-73
2021/04/03 12:28:35;;;;;;;26.02;4.88;;;15.00;55.40;;;;;;5056006;28;20419;-74
2021/04/03 12:31:02;;;;;;;22.08;4.60;;;15.00;55.20;;;;;;5058599;28;20794;-75
2021/04/03 12:33:28;;;;;;;24.10;4.80;;;15.10;54.90;;;;;;5051980;28;20434;-75
2021/04/03 12:35:55;;;;;;;26.50;4.72;;;15.20;54.50;;;;;;5057439;28;20427;-74
2021/04/03 12:38:21;;;;;;;26.05;4.65;;;15.20;54.50;;;;;;5054039;28;20432;-74
2021/04/03 12:40:48;;;;;;;23.17;4.55;;;15.30;54.40;;;;;;5056886;28;20434;-74
2021/04/03 12:43:14;;;;;;;25.40;4.47;;;15.40;54.20;;;;;;5056781;28;20419;-74
2021/04/03 12:45:40;;;;;;;23.35;4.60;;;15.50;54.10;;;;;;5061020;28;20435;-73
2021/04/03 12:48:07;;;;;;;22.60;4.47;;;15.60;54.10;;;;;;5062770;28;20779;-74